createdAt,value
2023-05-01T04:27:52.203Z,90.73
2023-05-01T06:30:36.118Z,79.34
2023-05-01T06:48:13.997Z,78.74
2023-05-01T06:50:05.489Z,78.67
2023-05-01T06:59:47.180Z,77.51
2023-05-01T07:02:16.480Z,77.33
2023-05-01T08:10:27.615Z,71.28
2023-05-01T08:12:55.588Z,71.23
2023-05-01T08:15:27.801Z,71.22
2023-05-01T08:21:32.064Z,70.52
2023-05-01T09:56:05.527Z,61.54
2023-05-01T10:12:40.509Z,62.63
2023-05-01T10:19:34.158Z,61.11
2023-05-01T10:22:29.711Z,61.22
2023-05-01T15:51:42.337Z,44.15
2023-05-01T15:54:11.145Z,43.57
2023-05-01T15:56:38.963Z,42.21
2023-05-01T15:59:08.591Z,42.52
2023-05-01T16:01:36.600Z,41.86
2023-05-01T16:04:05.065Z,42.19
2023-05-01T16:06:55.034Z,42.44
2023-05-01T16:09:24.682Z,42.02
2023-05-01T16:11:52.233Z,42.40
2023-05-01T16:14:20.187Z,42.39
2023-05-01T16:16:48.141Z,42.90
2023-05-01T16:19:18.108Z,42.69
2023-05-01T16:21:45.684Z,41.62
2023-05-01T16:24:13.407Z,41.78
2023-05-01T16:26:42.106Z,42.29
2023-05-01T16:29:10.441Z,42.21
2023-05-01T16:31:38.002Z,41.83
2023-05-01T16:34:11.417Z,41.66
2023-05-01T16:36:43.609Z,41.84
2023-05-01T16:39:17.053Z,42.15
2023-05-01T16:41:46.972Z,42.43
2023-05-01T16:44:15.019Z,42.51
2023-05-01T16:46:44.134Z,43.09
2023-05-01T16:49:12.173Z,42.66
2023-05-01T16:51:44.565Z,43.07
2023-05-01T16:54:12.613Z,43.15
2023-05-01T16:56:40.551Z,42.81
2023-05-01T16:59:09.066Z,43.25
2023-05-01T17:01:37.124Z,43.94
2023-05-01T17:04:05.181Z,45.07
2023-05-01T17:06:35.523Z,44.98
2023-05-01T17:13:01.647Z,44.60
2023-05-01T17:15:29.816Z,45.43
2023-05-01T17:17:57.530Z,45.53
2023-05-01T17:20:25.350Z,45.98
2023-05-01T17:22:53.145Z,47.31
2023-05-01T17:25:21.593Z,47.99
2023-05-01T17:27:49.646Z,48.64
2023-05-01T17:30:19.548Z,49.38
2023-05-01T17:32:47.286Z,49.36
2023-05-01T17:35:16.181Z,49.84
2023-05-01T17:37:44.149Z,50.28
2023-05-01T17:40:12.496Z,50.70
2023-05-01T17:42:40.448Z,51.34
2023-05-01T17:45:10.828Z,51.06
2023-05-01T17:51:46.111Z,50.97
2023-05-01T17:57:56.569Z,52.02
2023-05-01T18:00:25.642Z,52.35
2023-05-01T18:02:54.688Z,52.94
2023-05-01T18:05:23.692Z,53.17
2023-05-01T18:07:53.283Z,53.47
2023-05-01T18:10:21.317Z,54.39
2023-05-01T18:12:50.827Z,54.68
2023-05-01T18:15:22.498Z,54.62
2023-05-01T18:17:51.038Z,55.57
2023-05-01T18:31:11.465Z,56.85
2023-05-01T18:33:54.126Z,57.38
2023-05-01T18:36:24.775Z,58.03
2023-05-01T18:38:59.409Z,58.33
2023-05-01T18:41:27.260Z,59.09
2023-05-01T18:43:57.849Z,59.81
2023-05-01T18:46:26.657Z,59.85
2023-05-01T18:48:54.551Z,60.12
2023-05-01T18:51:22.410Z,60.54
2023-05-01T18:53:50.457Z,60.79
2023-05-01T18:56:18.395Z,61.55
2023-05-01T18:58:46.727Z,61.42
2023-05-01T19:01:14.631Z,61.37
2023-05-01T19:03:42.482Z,61.60
2023-05-01T19:14:06.361Z,61.58
2023-05-01T19:16:34.578Z,61.83
2023-05-01T19:38:20.029Z,59.68
2023-05-01T19:45:17.948Z,59.55
2023-05-01T19:47:46.551Z,58.74
2023-05-01T19:50:19.190Z,58.87
2023-05-01T19:52:54.087Z,58.98
2023-05-01T19:55:31.397Z,58.83
2023-05-01T19:58:00.654Z,58.82
2023-05-01T20:00:28.600Z,58.66
2023-05-01T20:02:57.473Z,58.42
2023-05-01T20:20:30.805Z,58.39
2023-05-01T20:23:19.622Z,58.77
2023-05-01T20:29:36.208Z,58.48
2023-05-01T20:32:05.115Z,58.28
2023-05-01T20:35:33.184Z,58.12
2023-05-01T20:41:45.853Z,57.68
2023-05-01T20:44:14.838Z,57.70
2023-05-01T20:46:52.711Z,57.92
2023-05-01T20:50:06.666Z,57.93
2023-05-01T20:52:36.457Z,58.05
2023-05-01T20:55:04.667Z,58.03
2023-05-01T20:57:36.847Z,58.91
2023-05-01T21:15:34.900Z,61.42
2023-05-01T21:18:04.023Z,62.27
2023-05-01T21:20:36.058Z,62.49
2023-05-01T21:23:03.818Z,62.71
2023-05-01T21:25:32.343Z,63.02
2023-05-01T21:28:04.033Z,62.90
2023-05-01T21:30:33.960Z,63.41
2023-05-01T21:33:02.648Z,63.50
2023-05-01T21:35:33.793Z,64.14
2023-05-01T21:40:46.798Z,63.99
2023-05-01T21:43:14.303Z,63.99
2023-05-01T21:45:44.919Z,63.93
2023-05-01T21:48:23.796Z,64.37
2023-05-01T22:33:48.947Z,60.15
2023-05-01T22:36:19.719Z,59.53
2023-05-01T22:46:23.926Z,59.06
2023-05-01T22:48:51.400Z,58.74
2023-05-01T22:51:21.530Z,58.98
2023-05-01T22:53:49.020Z,59.92
2023-05-01T22:56:17.806Z,59.89
2023-05-01T22:58:47.740Z,60.58
2023-05-01T23:01:15.523Z,61.21
2023-05-01T23:03:43.440Z,62.25
2023-05-01T23:06:12.340Z,63.11
2023-05-01T23:08:40.054Z,63.94
2023-05-01T23:11:08.146Z,64.41
2023-05-01T23:13:35.745Z,64.85
2023-05-01T23:16:03.336Z,65.48
2023-05-01T23:18:33.401Z,66.37
2023-05-01T23:21:01.115Z,66.40
2023-05-01T23:23:30.096Z,66.19
2023-05-01T23:25:57.537Z,66.38
2023-05-01T23:28:26.334Z,66.51
2023-05-01T23:31:04.091Z,66.39
2023-05-01T23:33:38.755Z,66.81
2023-05-01T23:36:13.514Z,67.50
2023-05-01T23:38:42.512Z,67.30
2023-05-01T23:41:10.199Z,67.29
2023-05-01T23:43:38.566Z,68.11
2023-05-01T23:46:08.359Z,68.21
2023-05-01T23:48:37.204Z,68.30
2023-05-01T23:51:05.073Z,68.81
2023-05-01T23:53:34.623Z,68.86
2023-05-01T23:56:03.052Z,68.29
2023-05-01T23:58:31.231Z,68.68
